PWSweather.com
Personal Weather Stations
Station Observations
IMAZOWIE6
WarszawaPL

WarszawaPL

Lat: 52.27957, Lon: 21.05489

Elevation: 100

Station Type: WS1080

http://stacjapogody.waw.pl/

High Low Average
Temperature 57.0°F13.9°C 47.7°F8.7°C 51.9°F11.1°C
Dew Point 34.3°F1.3°C -168.0°F-111.1°C -23.0°F-30.6°C
Winds Calm Calm Calm Calm Calm NCalm N
Wind Gusts 0.6 mph1.0 kmh -- --
Humidity 43% 10% 25%
Pressure 29.78 in1008.5 mb 29.54 in1000.3 mb -
Precipitation 0.00 in0.0 mm - -
Hour Temp Dew Point Humidity Winds Wind Gusts Pressure Precip Precip Rate Daily Precip Total
12:02 AM 47.7°F8.7°C -168.0°F-111.1°C - Calm Calm -- 29.78 in1008.5 mb 0.00 in0.0 mm 0.00 in0.0 mm 0.00 in0.0 mm
12:17 AM 47.7°F8.7°C -168.0°F-111.1°C - Calm Calm -- 29.78 in1008.5 mb 0.00 in0.0 mm 0.00 in0.0 mm 0.00 in0.0 mm
12:32 AM 47.8°F8.8°C -168.0°F-111.1°C - Calm Calm -- 29.78 in1008.5 mb 0.00 in0.0 mm 0.00 in0.0 mm 0.00 in0.0 mm
12:47 AM 47.8°F8.8°C -168.0°F-111.1°C - Calm Calm -- 29.78 in1008.5 mb 0.00 in0.0 mm 0.00 in0.0 mm 0.00 in0.0 mm
01:02 AM 48.0°F8.9°C -168.0°F-111.1°C - Calm Calm -- 29.78 in1008.5 mb 0.00 in0.0 mm 0.00 in0.0 mm 0.00 in0.0 mm
01:17 AM 48.0°F8.9°C -168.0°F-111.1°C - Calm Calm -- 29.77 in1008.1 mb 0.01 in0.3 mm 0.05 in1.3 mm 0.01 in0.3 mm
01:32 AM 48.0°F8.9°C -6.0°F-21.1°C 10% Calm Calm -- 29.77 in1008.1 mb 0.01 in0.3 mm 0.00 in0.0 mm 0.01 in0.3 mm
01:47 AM 48.0°F8.9°C -4.1°F-20.1°C 11% Calm Calm -- 29.76 in1007.8 mb 0.01 in0.3 mm 0.00 in0.0 mm 0.01 in0.3 mm
02:02 AM 48.2°F9.0°C -3.9°F-19.9°C 11% Calm Calm -- 29.76 in1007.8 mb 0.01 in0.3 mm 0.00 in0.0 mm 0.01 in0.3 mm
02:17 AM 48.2°F9.0°C -2.1°F-18.9°C 12% Calm Calm -- 29.76 in1007.8 mb 0.00 in0.0 mm 0.00 in0.0 mm 0.01 in0.3 mm
02:32 AM 48.4°F9.1°C -2.0°F-18.9°C 12% Calm Calm -- 29.75 in1007.5 mb 0.00 in0.0 mm 0.00 in0.0 mm 0.01 in0.3 mm
02:47 AM 48.2°F9.0°C -2.1°F-18.9°C 12% Calm Calm -- 29.75 in1007.5 mb 0.00 in0.0 mm 0.00 in0.0 mm 0.01 in0.3 mm
03:02 AM 48.4°F9.1°C -0.3°F-17.9°C 13% Calm Calm -- 29.75 in1007.5 mb 0.00 in0.0 mm 0.00 in0.0 mm 0.01 in0.3 mm
03:17 AM 48.2°F9.0°C -2.1°F-18.9°C 12% Calm Calm -- 29.74 in1007.1 mb 0.00 in0.0 mm 0.00 in0.0 mm 0.01 in0.3 mm
03:32 AM 48.6°F9.2°C -1.8°F-18.8°C 12% Calm Calm -- 29.74 in1007.1 mb 0.01 in0.3 mm 0.05 in1.3 mm 0.02 in0.5 mm
03:47 AM 48.2°F9.0°C -0.5°F-18.1°C 13% Calm Calm -- 29.73 in1006.8 mb 0.02 in0.5 mm 0.05 in1.3 mm 0.04 in1.0 mm
04:02 AM 48.2°F9.0°C -0.5°F-18.1°C 13% Calm Calm -- 29.73 in1006.8 mb 0.04 in1.0 mm 0.02 in0.5 mm 0.05 in1.3 mm
04:17 AM 48.4°F9.1°C -0.3°F-17.9°C 13% Calm Calm -- 29.73 in1006.8 mb 0.00 in0.0 mm 0.00 in0.0 mm 0.05 in1.3 mm
04:32 AM 48.4°F9.1°C 1.2°F-17.1°C 14% Calm Calm -- 29.73 in1006.8 mb 0.01 in0.3 mm 0.05 in1.3 mm 0.06 in1.5 mm
04:47 AM 48.4°F9.1°C 2.7°F-16.3°C 15% Calm Calm -- 29.73 in1006.8 mb 0.01 in0.3 mm 0.00 in0.0 mm 0.06 in1.5 mm
05:02 AM 48.4°F9.1°C 4.1°F-15.5°C 16% Calm Calm -- 29.72 in1006.4 mb 0.01 in0.3 mm 0.00 in0.0 mm 0.06 in1.5 mm
05:17 AM 48.7°F9.3°C 5.7°F-14.6°C 17% Calm Calm -- 29.72 in1006.4 mb 0.00 in0.0 mm 0.00 in0.0 mm 0.06 in1.5 mm
05:32 AM 48.6°F9.2°C 6.8°F-14.0°C 18% Calm Calm -- 29.72 in1006.4 mb 0.00 in0.0 mm 0.00 in0.0 mm 0.06 in1.5 mm
05:47 AM 49.1°F9.5°C 8.4°F-13.1°C 19% Calm Calm -- 29.72 in1006.4 mb 0.00 in0.0 mm 0.00 in0.0 mm 0.06 in1.5 mm
06:02 AM 48.6°F9.2°C 8.0°F-13.3°C 19% Calm Calm -- 29.72 in1006.4 mb 0.00 in0.0 mm 0.00 in0.0 mm 0.06 in1.5 mm
06:17 AM 48.7°F9.3°C 9.3°F-12.6°C 20% Calm Calm -- 29.71 in1006.1 mb 0.00 in0.0 mm 0.00 in0.0 mm 0.06 in1.5 mm
06:32 AM 49.1°F9.5°C 11.7°F-11.3°C 22% Calm Calm -- 29.71 in1006.1 mb 0.00 in0.0 mm 0.00 in0.0 mm 0.06 in1.5 mm
06:47 AM 48.9°F9.4°C 12.5°F-10.8°C 23% Calm Calm -- 29.71 in1006.1 mb 0.00 in0.0 mm 0.00 in0.0 mm 0.06 in1.5 mm
07:02 AM 49.3°F9.6°C 13.8°F-10.1°C 24% Calm Calm -- 29.71 in1006.1 mb 0.00 in0.0 mm 0.00 in0.0 mm 0.06 in1.5 mm
07:17 AM 49.3°F9.6°C 15.6°F-9.1°C 26% Calm Calm -- 29.71 in1006.1 mb 0.00 in0.0 mm 0.00 in0.0 mm 0.06 in1.5 mm
07:32 AM 49.6°F9.8°C 16.8°F-8.4°C 27% Calm Calm -- 29.71 in1006.1 mb 0.00 in0.0 mm 0.00 in0.0 mm 0.06 in1.5 mm
07:47 AM 49.8°F9.9°C 17.8°F-7.9°C 28% Calm Calm 0.6 mph1.0 kmh 29.70 in1005.8 mb 0.00 in0.0 mm 0.00 in0.0 mm 0.06 in1.5 mm
08:02 AM 50.0°F10.0°C 18.0°F-7.8°C 28% Calm Calm 0.6 mph1.0 kmh 29.70 in1005.8 mb 0.00 in0.0 mm 0.00 in0.0 mm 0.06 in1.5 mm
08:17 AM 50.0°F10.0°C 18.0°F-7.8°C 28% Calm Calm -- 29.70 in1005.8 mb 0.00 in0.0 mm 0.00 in0.0 mm 0.06 in1.5 mm
08:32 AM 50.5°F10.3°C 18.4°F-7.6°C 28% Calm Calm -- 29.70 in1005.8 mb 0.00 in0.0 mm 0.00 in0.0 mm 0.06 in1.5 mm
08:47 AM 50.9°F10.5°C 18.7°F-7.4°C 28% Calm Calm -- 29.70 in1005.8 mb 0.00 in0.0 mm 0.00 in0.0 mm 0.06 in1.5 mm
09:02 AM 50.9°F10.5°C 18.7°F-7.4°C 28% Calm Calm -- 29.70 in1005.8 mb 0.00 in0.0 mm 0.00 in0.0 mm 0.06 in1.5 mm
09:17 AM 50.7°F10.4°C 18.6°F-7.4°C 28% Calm Calm -- 29.69 in1005.4 mb 0.00 in0.0 mm 0.00 in0.0 mm 0.06 in1.5 mm
09:32 AM 51.1°F10.6°C 18.1°F-7.7°C 27% Calm Calm -- 29.69 in1005.4 mb 0.00 in0.0 mm 0.00 in0.0 mm 0.06 in1.5 mm
09:47 AM 51.3°F10.7°C 17.3°F-8.2°C 26% Calm Calm -- 29.69 in1005.4 mb 0.00 in0.0 mm 0.00 in0.0 mm 0.06 in1.5 mm
10:02 AM 51.4°F10.8°C 15.6°F-9.1°C 24% Calm Calm -- 29.69 in1005.4 mb 0.00 in0.0 mm 0.00 in0.0 mm 0.06 in1.5 mm
10:17 AM 51.8°F11.0°C 14.0°F-10.0°C 22% Calm Calm -- 29.69 in1005.4 mb 0.00 in0.0 mm 0.00 in0.0 mm 0.06 in1.5 mm
10:32 AM 52.0°F11.1°C 12.0°F-11.1°C 20% Calm Calm -- 29.68 in1005.1 mb 0.00 in0.0 mm 0.00 in0.0 mm 0.06 in1.5 mm
10:47 AM 52.3°F11.3°C 8.6°F-13.0°C 17% Calm Calm -- 29.68 in1005.1 mb 0.00 in0.0 mm 0.00 in0.0 mm 0.06 in1.5 mm
11:02 AM 52.3°F11.3°C 4.4°F-15.3°C 14% Calm Calm -- 29.67 in1004.7 mb 0.00 in0.0 mm 0.00 in0.0 mm 0.06 in1.5 mm
11:17 AM 52.5°F11.4°C -167.5°F-110.8°C - Calm Calm -- 29.67 in1004.7 mb 0.00 in0.0 mm 0.00 in0.0 mm 0.06 in1.5 mm
11:32 AM 53.1°F11.7°C -167.5°F-110.8°C - Calm Calm -- 29.67 in1004.7 mb 0.00 in0.0 mm 0.00 in0.0 mm 0.06 in1.5 mm
11:47 AM 53.1°F11.7°C -167.5°F-110.8°C - Calm Calm -- 29.66 in1004.4 mb 0.00 in0.0 mm 0.00 in0.0 mm 0.06 in1.5 mm
12:02 PM 52.0°F11.1°C -167.6°F-110.9°C - Calm Calm -- 29.66 in1004.4 mb 0.00 in0.0 mm 0.00 in0.0 mm 0.06 in1.5 mm
12:17 PM 52.0°F11.1°C -167.6°F-110.9°C - Calm Calm -- 29.66 in1004.4 mb 0.00 in0.0 mm 0.00 in0.0 mm 0.06 in1.5 mm
12:32 PM 52.2°F11.2°C -167.6°F-110.9°C - Calm Calm -- 29.66 in1004.4 mb 0.00 in0.0 mm 0.00 in0.0 mm 0.06 in1.5 mm
12:47 PM 52.2°F11.2°C -167.6°F-110.9°C - Calm Calm -- 29.65 in1004.1 mb 0.00 in0.0 mm 0.00 in0.0 mm 0.06 in1.5 mm
01:03 PM 52.2°F11.2°C -167.6°F-110.9°C - Calm Calm -- 29.65 in1004.1 mb 0.00 in0.0 mm 0.00 in0.0 mm 0.06 in1.5 mm
01:19 PM 52.0°F11.1°C -167.6°F-110.9°C - Calm Calm -- 29.64 in1003.7 mb 0.00 in0.0 mm 0.00 in0.0 mm 0.06 in1.5 mm
01:35 PM 51.8°F11.0°C -167.6°F-110.9°C - Calm Calm -- 29.64 in1003.7 mb 0.01 in0.3 mm 0.05 in1.3 mm 0.07 in1.8 mm
01:46 PM 52.0°F11.1°C -167.6°F-110.9°C - Calm Calm -- 29.64 in1003.7 mb 0.01 in0.3 mm 0.00 in0.0 mm 0.07 in1.8 mm
02:02 PM 51.8°F11.0°C -167.6°F-110.9°C - Calm Calm -- 29.64 in1003.7 mb 0.02 in0.5 mm 0.02 in0.5 mm 0.09 in2.3 mm
02:18 PM 51.8°F11.0°C -167.6°F-110.9°C - Calm Calm -- 29.63 in1003.4 mb 0.01 in0.3 mm 0.00 in0.0 mm 0.09 in2.3 mm
02:34 PM 52.0°F11.1°C -167.6°F-110.9°C - Calm Calm -- 29.62 in1003.0 mb 0.02 in0.5 mm 0.05 in1.3 mm 0.10 in2.5 mm
02:50 PM 52.0°F11.1°C -2.9°F-19.4°C 10% Calm Calm -- 29.62 in1003.0 mb 0.02 in0.5 mm 0.00 in0.0 mm 0.10 in2.5 mm
03:01 PM 52.2°F11.2°C -0.8°F-18.2°C 11% Calm Calm -- 29.61 in1002.7 mb 0.02 in0.5 mm 0.00 in0.0 mm 0.10 in2.5 mm
03:17 PM 52.2°F11.2°C 1.0°F-17.2°C 12% Calm Calm -- 29.61 in1002.7 mb 0.01 in0.3 mm 0.00 in0.0 mm 0.10 in2.5 mm
03:33 PM 52.3°F11.3°C 4.4°F-15.3°C 14% Calm Calm -- 29.61 in1002.7 mb 0.01 in0.3 mm 0.00 in0.0 mm 0.10 in2.5 mm
03:49 PM 52.3°F11.3°C 5.9°F-14.5°C 15% Calm Calm -- 29.60 in1002.4 mb 0.02 in0.5 mm 0.05 in1.3 mm 0.11 in2.8 mm
04:05 PM 52.5°F11.4°C 8.8°F-12.9°C 17% Calm Calm -- 29.59 in1002.0 mb 0.04 in1.0 mm 0.02 in0.5 mm 0.12 in3.0 mm
04:20 PM 52.7°F11.5°C 10.2°F-12.1°C 18% Calm Calm -- 29.60 in1002.4 mb 0.02 in0.5 mm 0.00 in0.0 mm 0.12 in3.0 mm
04:35 PM 52.9°F11.6°C 11.6°F-11.3°C 19% Calm Calm -- 29.59 in1002.0 mb 0.02 in0.5 mm 0.00 in0.0 mm 0.12 in3.0 mm
04:46 PM 53.1°F11.7°C 11.7°F-11.3°C 19% Calm Calm -- 29.59 in1002.0 mb 0.02 in0.5 mm 0.00 in0.0 mm 0.12 in3.0 mm
05:02 PM 53.4°F11.9°C 14.3°F-9.8°C 21% Calm Calm -- 29.58 in1001.7 mb 0.02 in0.5 mm 0.00 in0.0 mm 0.12 in3.0 mm
05:18 PM 53.8°F12.1°C 15.6°F-9.1°C 22% Calm Calm -- 29.58 in1001.7 mb 0.01 in0.3 mm 0.00 in0.0 mm 0.12 in3.0 mm
05:34 PM 54.0°F12.2°C 17.8°F-7.9°C 24% Calm Calm -- 29.59 in1002.0 mb 0.06 in1.5 mm 0.18 in4.6 mm 0.17 in4.3 mm
05:50 PM 54.3°F12.4°C 19.0°F-7.2°C 25% Calm Calm -- 29.58 in1001.7 mb 0.06 in1.5 mm 0.00 in0.0 mm 0.17 in4.3 mm
06:01 PM 54.5°F12.5°C 20.1°F-6.6°C 26% Calm Calm -- 29.57 in1001.4 mb 0.06 in1.5 mm 0.00 in0.0 mm 0.17 in4.3 mm
06:17 PM 55.0°F12.8°C 22.3°F-5.4°C 28% Calm Calm -- 29.58 in1001.7 mb 0.00 in0.0 mm 0.00 in0.0 mm 0.17 in4.3 mm
06:33 PM 55.2°F12.9°C 23.3°F-4.8°C 29% Calm Calm -- 29.58 in1001.7 mb 0.00 in0.0 mm 0.00 in0.0 mm 0.17 in4.3 mm
06:49 PM 55.6°F13.1°C 24.4°F-4.2°C 30% Calm Calm -- 29.58 in1001.7 mb 0.00 in0.0 mm 0.00 in0.0 mm 0.17 in4.3 mm
07:05 PM 55.9°F13.3°C 26.3°F-3.2°C 32% Calm Calm -- 29.58 in1001.7 mb 0.00 in0.0 mm 0.00 in0.0 mm 0.17 in4.3 mm
07:21 PM 56.1°F13.4°C 27.2°F-2.7°C 33% Calm Calm -- 29.59 in1002.0 mb 0.00 in0.0 mm 0.00 in0.0 mm 0.17 in4.3 mm
07:31 PM 56.1°F13.4°C 27.9°F-2.3°C 34% Calm Calm 0.6 mph1.0 kmh 29.58 in1001.7 mb 0.00 in0.0 mm 0.00 in0.0 mm 0.17 in4.3 mm
07:47 PM 56.3°F13.5°C 28.8°F-1.8°C 35% Calm Calm -- 29.58 in1001.7 mb 0.00 in0.0 mm 0.00 in0.0 mm 0.17 in4.3 mm
08:03 PM 56.5°F13.6°C 29.7°F-1.3°C 36% Calm Calm -- 29.59 in1002.0 mb 0.00 in0.0 mm 0.00 in0.0 mm 0.17 in4.3 mm
08:19 PM 56.5°F13.6°C 30.3°F-0.9°C 37% Calm Calm -- 29.58 in1001.7 mb 0.00 in0.0 mm 0.00 in0.0 mm 0.17 in4.3 mm
08:35 PM 56.5°F13.6°C 31.0°F-0.6°C 38% Calm Calm -- 29.58 in1001.7 mb 0.00 in0.0 mm 0.00 in0.0 mm 0.17 in4.3 mm
08:46 PM 56.7°F13.7°C 31.8°F-0.1°C 39% Calm Calm -- 29.57 in1001.4 mb 0.00 in0.0 mm 0.00 in0.0 mm 0.17 in4.3 mm
09:02 PM 56.7°F13.7°C 31.8°F-0.1°C 39% Calm Calm -- 29.58 in1001.7 mb 0.00 in0.0 mm 0.00 in0.0 mm 0.17 in4.3 mm
09:18 PM 56.7°F13.7°C 31.8°F-0.1°C 39% Calm Calm -- 29.57 in1001.4 mb 0.00 in0.0 mm 0.00 in0.0 mm 0.17 in4.3 mm
09:34 PM 56.5°F13.6°C 32.3°F0.2°C 40% Calm Calm -- 29.57 in1001.4 mb 0.00 in0.0 mm 0.00 in0.0 mm 0.17 in4.3 mm
09:50 PM 57.0°F13.9°C 32.8°F0.4°C 40% Calm Calm -- 29.57 in1001.4 mb 0.00 in0.0 mm 0.00 in0.0 mm 0.17 in4.3 mm
10:01 PM 56.5°F13.6°C 32.9°F0.5°C 41% Calm Calm -- 29.56 in1001.0 mb 0.00 in0.0 mm 0.00 in0.0 mm 0.17 in4.3 mm
10:17 PM 56.5°F13.6°C 32.9°F0.5°C 41% Calm Calm -- 29.55 in1000.7 mb 0.00 in0.0 mm 0.00 in0.0 mm 0.17 in4.3 mm
10:33 PM 56.5°F13.6°C 32.9°F0.5°C 41% Calm Calm -- 29.55 in1000.7 mb 0.00 in0.0 mm 0.00 in0.0 mm 0.17 in4.3 mm
10:49 PM 56.5°F13.6°C 33.5°F0.8°C 42% Calm Calm -- 29.55 in1000.7 mb 0.00 in0.0 mm 0.00 in0.0 mm 0.17 in4.3 mm
11:05 PM 56.7°F13.7°C 33.7°F0.9°C 42% Calm Calm -- 29.55 in1000.7 mb 0.00 in0.0 mm 0.00 in0.0 mm 0.17 in4.3 mm
11:21 PM 56.5°F13.6°C 33.5°F0.8°C 42% Calm Calm -- 29.54 in1000.3 mb 0.00 in0.0 mm 0.00 in0.0 mm 0.17 in4.3 mm
11:31 PM 56.8°F13.8°C 33.8°F1.0°C 42% Calm Calm -- 29.54 in1000.3 mb 0.00 in0.0 mm 0.00 in0.0 mm 0.17 in4.3 mm
11:47 PM 56.7°F13.7°C 34.3°F1.3°C 43% Calm Calm -- 29.54 in1000.3 mb 0.00 in0.0 mm 0.00 in0.0 mm 0.17 in4.3 mm